Kenshinmaru — JD3110 — position and weather

sailwx.info

Track history (hours):
 
Tides and Currents Weather Stations Pressure Air Temp Water Temp Dewpoint Dewpoint Depression Visibility Wind Speed Wind Dir Waves Ship Positions

Kenshinmaru

Last reported at 2018-Jun-21 09:14 UTC. Time now 2018-Jun-22 01:21 UTC.
Position N 34°06' E 134°55'.

Length 61 m.

Type: Cargo ship. MMSI: 431001809.

Date/timePositionNaut miles runAvg speedWind from/ knotsBaromVisibWave heightAir tempDewpointWater temp
2018-Jun-21 09:14N 34°06' E 134°55'410.1
2018-Jun-21 08:51N 34°10' E 134°56'610.2
2018-Jun-21 08:15N 34°16' E 134°58'310.1
2018-Jun-21 08:00N 34°18' E 134°59'5 9.8
2018-Jun-21 07:30N 34°23' E 135°00'510.2
2018-Jun-21 06:58N 34°27' E 135°05'1010.9
2018-Jun-21 06:00N 34°34' E 135°14'610.8
2018-Jun-21 05:28N 34°39' E 135°18'3 0.4
2018-Jun-20 19:48N 34°42' E 135°18'0 0.0
2018-Jun-20 19:24N 34°42' E 135°18'0 0.0
2018-Jun-20 19:00N 34°42' E 135°18'0 0.0
2018-Jun-20 18:30N 34°42' E 135°18'0 0.0
2018-Jun-20 04:19N 34°42' E 135°18'1 1.5
2018-Jun-20 03:54N 34°43' E 135°18'0 0.0
2018-Jun-20 02:42N 34°43' E 135°18'0 0.0
2018-Jun-20 02:30N 34°43' E 135°18'0 0.0
2018-Jun-20 01:12N 34°43' E 135°18'0 0.0
2018-Jun-20 00:48N 34°43' E 135°18'0 0.0
2018-Jun-20 00:30N 34°43' E 135°18'0 0.0
2018-Jun-19 23:54N 34°43' E 135°18'0 0.0
2018-Jun-19 23:30N 34°43' E 135°18'0 0.0
2018-Jun-19 22:18N 34°43' E 135°18'0 0.0
2018-Jun-19 22:00N 34°43' E 135°18'0 0.0
2018-Jun-19 21:18N 34°43' E 135°18'0 0.0
2018-Jun-19 20:54N 34°43' E 135°18'0 0.0
2018-Jun-19 20:24N 34°43' E 135°18'0 0.0
2018-Jun-19 20:00N 34°43' E 135°18'0 0.0
2018-Jun-19 19:30N 34°43' E 135°18'0 0.0
2018-Jun-19 19:00N 34°43' E 135°18'0 0.0
2018-Jun-19 18:24N 34°43' E 135°18'0 0.0
2018-Jun-19 18:00N 34°43' E 135°18'0 0.0
2018-Jun-19 17:24N 34°43' E 135°18'0 0.0
2018-Jun-19 17:00N 34°43' E 135°18'0 0.0
2018-Jun-19 16:24N 34°43' E 135°18'0 0.0
2018-Jun-19 16:00N 34°43' E 135°18'0 0.0
2018-Jun-19 15:24N 34°43' E 135°18'0 0.0
2018-Jun-19 15:00N 34°43' E 135°18'0 0.0
2018-Jun-19 14:30N 34°43' E 135°18'0 0.0
2018-Jun-19 13:42N 34°43' E 135°18'0 0.0
2018-Jun-19 13:30N 34°43' E 135°18'0 0.0
2018-Jun-19 13:00N 34°43' E 135°18'0 0.0
2018-Jun-19 12:30N 34°43' E 135°18'0 0.0
2018-Jun-19 12:00N 34°43' E 135°18'0 0.0
2018-Jun-19 11:24N 34°43' E 135°18'0 0.0
2018-Jun-19 11:00N 34°43' E 135°18'0 0.0
2018-Jun-19 10:30N 34°43' E 135°18'0 0.0
2018-Jun-19 10:00N 34°43' E 135°18'0 0.0
2018-Jun-19 09:30N 34°43' E 135°18'0 0.0
2018-Jun-19 08:05N 34°43' E 135°18'0 0.7
2018-Jun-19 08:00N 34°43' E 135°18'1 0.1
2018-Jun-19 02:02N 34°42' E 135°18'0 5.2
2018-Jun-19 02:00N 34°42' E 135°18'510.2
2018-Jun-19 01:30N 34°38' E 135°15'611.7
2018-Jun-19 00:59N 34°36' E 135°08'2011.5
2018-Jun-18 23:14N 34°31' E 134°44'311.9
2018-Jun-18 22:59N 34°30' E 134°41'612.0
2018-Jun-18 22:30N 34°28' E 134°34'  
2018-Jun-12 12:16N 34°06' E 134°54'511.4
2018-Jun-12 11:47N 34°11' E 134°57'310.7
2018-Jun-12 11:28N 34°14' E 134°58'4 8.9
2018-Jun-12 11:00N 34°19' E 134°59'4 8.7
2018-Jun-12 10:30N 34°23' E 135°01'510.4
2018-Jun-12 10:00N 34°27' E 135°05'1011.1
2018-Jun-12 09:06N 34°34' E 135°14'211.1
2018-Jun-12 08:55N 34°35' E 135°16'511.0
2018-Jun-12 08:28N 34°40' E 135°18'3 1.3
2018-Jun-12 06:31N 34°42' E 135°18'0 0.0
2018-Jun-12 01:02N 34°42' E 135°18'0 0.0
2018-Jun-12 00:43N 34°42' E 135°18'0 0.0
2018-Jun-12 00:25N 34°42' E 135°18'0 0.0
2018-Jun-11 23:49N 34°42' E 135°18'0 0.0
2018-Jun-11 23:25N 34°42' E 135°18'0 0.0
2018-Jun-11 22:55N 34°42' E 135°18'0 0.0
2018-Jun-11 22:25N 34°42' E 135°18'0 0.0
2018-Jun-11 21:55N 34°42' E 135°18'0 0.0
2018-Jun-11 21:25N 34°42' E 135°18'0 0.0
2018-Jun-11 20:55N 34°42' E 135°18'0 0.0
2018-Jun-11 20:25N 34°42' E 135°18'0 0.0
2018-Jun-11 19:55N 34°42' E 135°18'0 0.0
2018-Jun-11 19:25N 34°42' E 135°18'0 0.0
2018-Jun-11 18:49N 34°42' E 135°18'0 0.0
2018-Jun-11 18:25N 34°42' E 135°18'0 0.0
2018-Jun-11 17:55N 34°42' E 135°18'0 0.0
2018-Jun-11 17:25N 34°42' E 135°18'0 0.0
2018-Jun-11 16:55N 34°42' E 135°18'0 0.0
2018-Jun-11 16:19N 34°42' E 135°18'0 0.0
2018-Jun-11 15:49N 34°42' E 135°18'0 0.0
2018-Jun-11 15:25N 34°42' E 135°18'0 0.0
2018-Jun-11 14:55N 34°42' E 135°18'0 0.0
2018-Jun-11 14:25N 34°42' E 135°18'0 0.0
2018-Jun-11 13:55N 34°42' E 135°18'0 0.0
2018-Jun-11 13:19N 34°42' E 135°18'0 0.0
2018-Jun-11 12:49N 34°42' E 135°18'0 0.0
2018-Jun-11 12:25N 34°42' E 135°18'0 0.0
2018-Jun-11 11:55N 34°42' E 135°18'0 0.0
2018-Jun-11 11:29N 34°42' E 135°18'0 0.1
2018-Jun-11 11:00N 34°42' E 135°18'4 8.8
2018-Jun-11 10:30N 34°38' E 135°17'610.8
2018-Jun-11 09:59N 34°36' E 135°10'510.5
2018-Jun-11 09:30N 34°35' E 135°04'  
Track history (hours):
 
Tides and Currents Weather Stations Pressure Air Temp Water Temp Dewpoint Dewpoint Depression Visibility Wind Speed Wind Dir Waves Ship Positions

Kenshinmaru

Last reported at 2018-Jun-21 09:14 UTC. Time now 2018-Jun-22 01:21 UTC.
Position N 34°06' E 134°55'.

Length 61 m.

Type: Cargo ship. MMSI: 431001809.

Date/timePositionNaut miles runAvg speedWind from/ knotsBaromVisibWave heightAir tempDewpointWater temp
2018-Jun-21 09:14N 34°06' E 134°55'410.1
2018-Jun-21 08:51N 34°10' E 134°56'610.2
2018-Jun-21 08:15N 34°16' E 134°58'310.1
2018-Jun-21 08:00N 34°18' E 134°59'5 9.8
2018-Jun-21 07:30N 34°23' E 135°00'510.2
2018-Jun-21 06:58N 34°27' E 135°05'1010.9
2018-Jun-21 06:00N 34°34' E 135°14'610.8
2018-Jun-21 05:28N 34°39' E 135°18'3 0.4
2018-Jun-20 19:48N 34°42' E 135°18'0 0.0
2018-Jun-20 19:24N 34°42' E 135°18'0 0.0
2018-Jun-20 19:00N 34°42' E 135°18'0 0.0
2018-Jun-20 18:30N 34°42' E 135°18'0 0.0
2018-Jun-20 04:19N 34°42' E 135°18'1 1.5
2018-Jun-20 03:54N 34°43' E 135°18'0 0.0
2018-Jun-20 02:42N 34°43' E 135°18'0 0.0
2018-Jun-20 02:30N 34°43' E 135°18'0 0.0
2018-Jun-20 01:12N 34°43' E 135°18'0 0.0
2018-Jun-20 00:48N 34°43' E 135°18'0 0.0
2018-Jun-20 00:30N 34°43' E 135°18'0 0.0
2018-Jun-19 23:54N 34°43' E 135°18'0 0.0
2018-Jun-19 23:30N 34°43' E 135°18'0 0.0
2018-Jun-19 22:18N 34°43' E 135°18'0 0.0
2018-Jun-19 22:00N 34°43' E 135°18'0 0.0
2018-Jun-19 21:18N 34°43' E 135°18'0 0.0
2018-Jun-19 20:54N 34°43' E 135°18'0 0.0
2018-Jun-19 20:24N 34°43' E 135°18'0 0.0
2018-Jun-19 20:00N 34°43' E 135°18'0 0.0
2018-Jun-19 19:30N 34°43' E 135°18'0 0.0
2018-Jun-19 19:00N 34°43' E 135°18'0 0.0
2018-Jun-19 18:24N 34°43' E 135°18'0 0.0
2018-Jun-19 18:00N 34°43' E 135°18'0 0.0
2018-Jun-19 17:24N 34°43' E 135°18'0 0.0
2018-Jun-19 17:00N 34°43' E 135°18'0 0.0
2018-Jun-19 16:24N 34°43' E 135°18'0 0.0
2018-Jun-19 16:00N 34°43' E 135°18'0 0.0
2018-Jun-19 15:24N 34°43' E 135°18'0 0.0
2018-Jun-19 15:00N 34°43' E 135°18'0 0.0
2018-Jun-19 14:30N 34°43' E 135°18'0 0.0
2018-Jun-19 13:42N 34°43' E 135°18'0 0.0
2018-Jun-19 13:30N 34°43' E 135°18'0 0.0
2018-Jun-19 13:00N 34°43' E 135°18'0 0.0
2018-Jun-19 12:30N 34°43' E 135°18'0 0.0
2018-Jun-19 12:00N 34°43' E 135°18'0 0.0
2018-Jun-19 11:24N 34°43' E 135°18'0 0.0
2018-Jun-19 11:00N 34°43' E 135°18'0 0.0
2018-Jun-19 10:30N 34°43' E 135°18'0 0.0
2018-Jun-19 10:00N 34°43' E 135°18'0 0.0
2018-Jun-19 09:30N 34°43' E 135°18'0 0.0
2018-Jun-19 08:05N 34°43' E 135°18'0 0.7
2018-Jun-19 08:00N 34°43' E 135°18'1 0.1
2018-Jun-19 02:02N 34°42' E 135°18'0 5.2
2018-Jun-19 02:00N 34°42' E 135°18'510.2
2018-Jun-19 01:30N 34°38' E 135°15'611.7
2018-Jun-19 00:59N 34°36' E 135°08'2011.5
2018-Jun-18 23:14N 34°31' E 134°44'311.9
2018-Jun-18 22:59N 34°30' E 134°41'612.0
2018-Jun-18 22:30N 34°28' E 134°34'  
2018-Jun-12 12:16N 34°06' E 134°54'511.4
2018-Jun-12 11:47N 34°11' E 134°57'310.7
2018-Jun-12 11:28N 34°14' E 134°58'4 8.9
2018-Jun-12 11:00N 34°19' E 134°59'4 8.7
2018-Jun-12 10:30N 34°23' E 135°01'510.4
2018-Jun-12 10:00N 34°27' E 135°05'1011.1
2018-Jun-12 09:06N 34°34' E 135°14'211.1
2018-Jun-12 08:55N 34°35' E 135°16'511.0
2018-Jun-12 08:28N 34°40' E 135°18'3 1.3
2018-Jun-12 06:31N 34°42' E 135°18'0 0.0
2018-Jun-12 01:02N 34°42' E 135°18'0 0.0
2018-Jun-12 00:43N 34°42' E 135°18'0 0.0
2018-Jun-12 00:25N 34°42' E 135°18'0 0.0
2018-Jun-11 23:49N 34°42' E 135°18'0 0.0
2018-Jun-11 23:25N 34°42' E 135°18'0 0.0
2018-Jun-11 22:55N 34°42' E 135°18'0 0.0
2018-Jun-11 22:25N 34°42' E 135°18'0 0.0
2018-Jun-11 21:55N 34°42' E 135°18'0 0.0
2018-Jun-11 21:25N 34°42' E 135°18'0 0.0
2018-Jun-11 20:55N 34°42' E 135°18'0 0.0
2018-Jun-11 20:25N 34°42' E 135°18'0 0.0
2018-Jun-11 19:55N 34°42' E 135°18'0 0.0
2018-Jun-11 19:25N 34°42' E 135°18'0 0.0
2018-Jun-11 18:49N 34°42' E 135°18'0 0.0
2018-Jun-11 18:25N 34°42' E 135°18'0 0.0
2018-Jun-11 17:55N 34°42' E 135°18'0 0.0
2018-Jun-11 17:25N 34°42' E 135°18'0 0.0
2018-Jun-11 16:55N 34°42' E 135°18'0 0.0
2018-Jun-11 16:19N 34°42' E 135°18'0 0.0
2018-Jun-11 15:49N 34°42' E 135°18'0 0.0
2018-Jun-11 15:25N 34°42' E 135°18'0 0.0
2018-Jun-11 14:55N 34°42' E 135°18'0 0.0
2018-Jun-11 14:25N 34°42' E 135°18'0 0.0
2018-Jun-11 13:55N 34°42' E 135°18'0 0.0
2018-Jun-11 13:19N 34°42' E 135°18'0 0.0
2018-Jun-11 12:49N 34°42' E 135°18'0 0.0
2018-Jun-11 12:25N 34°42' E 135°18'0 0.0
2018-Jun-11 11:55N 34°42' E 135°18'0 0.0
2018-Jun-11 11:29N 34°42' E 135°18'0 0.1
2018-Jun-11 11:00N 34°42' E 135°18'4 8.8
2018-Jun-11 10:30N 34°38' E 135°17'610.8
2018-Jun-11 09:59N 34°36' E 135°10'510.5
2018-Jun-11 09:30N 34°35' E 135°04'  

Dump ship's entire track history